Capitol Island, Maine
Current Conditions -  °F | °C
As of 4:34 PM on Wednesday 17 Dec 2014 (Local Time) from KIWI Reporting Station
Haze Haze  
Wind Chill: 35°   Ceiling: 600
Heat Index: 40°   Visibility: 3mi
Dew Point: 38°   Wind: 7mph
Humidity: 93%   Direction: NA
Pressure: 29.66"   Gusts: NA
Location:  43.854°N, 69.611°W
Report Text: KIWI 172134Z AUTO VRB06KT 3SM BR BKN006 OVC012 04/03 A2966 RMK AO2 P0001 T00440033
Loading
Personal Weather Stations






























Interactive Weather Map New forecast layout! Learn more

10-Day Weather Forecast

Advertisements
Track Severe Weather on mobile